createdAt,value
2018-02-16T00:01:08.761Z,41.20
2018-02-16T00:03:37.146Z,40.25
2018-02-16T00:06:05.534Z,41.22
2018-02-16T00:08:34.315Z,37.15
2018-02-16T00:11:02.677Z,32.83
2018-02-16T00:13:31.056Z,37.28
2018-02-16T00:15:59.439Z,36.30
2018-02-16T00:18:27.801Z,42.17
2018-02-16T00:20:56.217Z,40.08
2018-02-16T00:23:24.596Z,37.40
2018-02-16T00:25:53.029Z,39.10
2018-02-16T00:28:21.393Z,44.40
2018-02-16T00:30:50.534Z,37.60
2018-02-16T00:33:18.921Z,35.22
2018-02-16T00:35:47.290Z,32.00
2018-02-16T00:38:15.673Z,41.13
2018-02-16T00:40:44.037Z,36.30
2018-02-16T00:43:12.634Z,36.20
2018-02-16T00:45:41.013Z,37.33
2018-02-16T00:48:09.382Z,37.65
2018-02-16T00:50:37.787Z,40.65
2018-02-16T00:53:06.165Z,33.38
2018-02-16T00:55:34.557Z,35.35
2018-02-16T00:58:02.925Z,35.67
2018-02-16T01:00:31.341Z,36.63
2018-02-16T01:03:00.474Z,36.60
2018-02-16T01:05:28.841Z,34.08
2018-02-16T01:07:57.237Z,37.88
2018-02-16T01:10:25.622Z,38.78
2018-02-16T01:12:54.008Z,35.03
2018-02-16T01:15:22.381Z,31.40
2018-02-16T01:17:50.945Z,34.78
2018-02-16T01:20:19.305Z,35.55
2018-02-16T01:22:47.665Z,32.20
2018-02-16T01:25:16.814Z,40.75
2018-02-16T01:27:45.186Z,42.00
2018-02-16T01:30:13.571Z,31.05
2018-02-16T01:32:41.938Z,37.22
2018-02-16T01:35:10.517Z,36.45
2018-02-16T01:37:38.882Z,36.13
2018-02-16T01:40:07.245Z,32.33
2018-02-16T01:42:35.729Z,36.40
2018-02-16T01:45:04.102Z,31.95
2018-02-16T01:47:33.253Z,34.63
2018-02-16T01:50:09.373Z,38.75
2018-02-16T01:52:38.057Z,35.92
2018-02-16T01:55:06.418Z,32.60
2018-02-16T01:57:35.959Z,39.65
2018-02-16T02:00:04.341Z,37.28
2018-02-16T02:02:32.718Z,34.88
2018-02-16T02:05:01.113Z,33.55
2018-02-16T02:07:29.473Z,29.02
2018-02-16T02:09:57.867Z,34.10
2018-02-16T02:12:26.235Z,35.80
2018-02-16T02:14:55.021Z,33.30
2018-02-16T02:17:23.393Z,34.40
2018-02-16T02:19:51.753Z,34.15
2018-02-16T02:22:20.141Z,32.80
2018-02-16T02:24:48.511Z,35.38
2018-02-16T02:27:16.901Z,38.00
2018-02-16T02:29:45.296Z,31.60
2018-02-16T02:32:14.071Z,33.08
2018-02-16T02:34:42.428Z,36.60
2018-02-16T02:37:10.790Z,34.50
2018-02-16T02:39:39.940Z,32.08
2018-02-16T02:42:08.302Z,35.58
2018-02-16T02:44:36.729Z,31.35
2018-02-16T02:47:05.094Z,33.42
2018-02-16T02:49:33.504Z,35.47
2018-02-16T02:52:02.633Z,31.62
2018-02-16T02:54:30.996Z,30.30
2018-02-16T02:56:59.387Z,34.35
2018-02-16T02:59:27.761Z,32.22
2018-02-16T03:01:56.157Z,28.80
2018-02-16T03:04:24.526Z,31.50
2018-02-16T03:06:52.921Z,34.40
2018-02-16T03:09:21.284Z,40.80
2018-02-16T03:11:49.698Z,32.22
2018-02-16T03:14:18.134Z,32.55
2018-02-16T03:16:46.504Z,30.50
2018-02-16T03:19:14.890Z,35.13
2018-02-16T03:21:43.262Z,33.13
2018-02-16T03:24:11.645Z,31.55
2018-02-16T03:26:40.007Z,35.92
2018-02-16T03:29:09.342Z,31.20
2018-02-16T03:31:37.709Z,32.88
2018-02-16T03:34:06.069Z,28.23
2018-02-16T03:36:34.457Z,30.85
2018-02-16T03:39:02.825Z,31.27
2018-02-16T03:41:31.213Z,32.00
2018-02-16T03:43:59.574Z,29.58
2018-02-16T03:46:28.902Z,33.38
2018-02-16T03:48:57.273Z,29.33
2018-02-16T03:51:25.629Z,28.58
2018-02-16T03:53:54.781Z,37.42
2018-02-16T03:56:23.149Z,35.80
2018-02-16T03:58:51.645Z,34.05
2018-02-16T04:01:20.010Z,32.70
2018-02-16T04:03:48.590Z,31.30
2018-02-16T04:06:16.950Z,26.62
2018-02-16T04:08:45.329Z,28.25
2018-02-16T04:11:13.886Z,29.87
2018-02-16T04:13:43.038Z,28.40
2018-02-16T04:16:11.421Z,33.38
2018-02-16T04:18:39.784Z,30.40
2018-02-16T04:21:08.453Z,33.75
2018-02-16T04:23:36.821Z,29.80
2018-02-16T04:26:05.192Z,27.23
2018-02-16T04:28:33.577Z,27.58
2018-02-16T04:31:01.946Z,28.77
2018-02-16T04:33:30.337Z,30.00
2018-02-16T04:35:58.700Z,28.75
2018-02-16T04:38:27.309Z,28.50
2018-02-16T04:40:55.679Z,31.10
2018-02-16T04:43:24.047Z,29.70
2018-02-16T04:45:52.437Z,27.20
2018-02-16T04:48:20.800Z,28.55
2018-02-16T04:50:49.296Z,27.50
2018-02-16T04:53:17.661Z,38.33
2018-02-16T04:55:46.269Z,35.40
2018-02-16T04:58:14.637Z,28.45
2018-02-16T05:00:43.006Z,29.10
2018-02-16T05:03:11.393Z,30.10
2018-02-16T05:05:39.754Z,40.55
2018-02-16T05:08:08.153Z,28.20
2018-02-16T05:10:36.523Z,32.35
2018-02-16T05:13:04.933Z,30.88
2018-02-16T05:15:33.317Z,31.95
2018-02-16T05:18:01.681Z,31.73
2018-02-16T05:20:30.065Z,26.90
2018-02-16T05:22:58.433Z,27.17
2018-02-16T05:25:26.820Z,30.12
2018-02-16T05:27:55.198Z,33.92
2018-02-16T05:30:23.870Z,43.25
2018-02-16T05:32:52.237Z,34.92
2018-02-16T05:35:20.606Z,41.22
2018-02-16T05:37:48.998Z,32.42
2018-02-16T05:40:17.393Z,35.00
2018-02-16T05:42:45.776Z,37.50
2018-02-16T05:45:14.169Z,32.30
2018-02-16T05:47:43.362Z,32.17
2018-02-16T05:50:11.728Z,42.62
2018-02-16T05:52:40.103Z,34.47
2018-02-16T05:55:08.492Z,41.50
2018-02-16T05:57:36.862Z,43.13
2018-02-16T06:00:05.280Z,35.25
2018-02-16T06:02:33.653Z,32.90
2018-02-16T06:05:02.065Z,33.03
2018-02-16T06:07:30.430Z,32.05
2018-02-16T06:09:59.557Z,28.25
2018-02-16T06:12:27.946Z,32.97
2018-02-16T06:14:56.318Z,33.03
2018-02-16T06:17:24.713Z,32.08
2018-02-16T06:19:53.085Z,27.83
2018-02-16T06:22:21.445Z,32.63
2018-02-16T06:24:49.848Z,29.90
2018-02-16T06:27:18.210Z,30.20
2018-02-16T06:29:46.595Z,36.90
2018-02-16T06:32:14.988Z,36.67
2018-02-16T06:34:43.414Z,31.37
2018-02-16T06:37:12.656Z,32.63
2018-02-16T06:39:41.030Z,37.40
2018-02-16T06:42:09.517Z,31.27
2018-02-16T06:44:37.888Z,39.10
2018-02-16T06:47:06.281Z,37.67
2018-02-16T06:49:34.641Z,40.80
2018-02-16T06:52:03.354Z,42.67
2018-02-16T06:54:31.752Z,46.88
2018-02-16T06:57:00.139Z,41.72
2018-02-16T06:59:29.301Z,35.88
2018-02-16T07:01:57.688Z,41.33
2018-02-16T07:04:26.075Z,36.88
2018-02-16T07:06:55.953Z,42.25
2018-02-16T07:09:24.764Z,35.40
2018-02-16T07:11:53.138Z,39.50
2018-02-16T07:14:21.520Z,32.20
2018-02-16T07:16:49.921Z,38.53
2018-02-16T07:19:18.288Z,51.97
2018-02-16T07:21:46.814Z,35.90
2018-02-16T07:24:15.178Z,30.88
2018-02-16T07:26:44.516Z,36.38
2018-02-16T07:29:13.016Z,29.45
2018-02-16T07:31:42.917Z,28.73
2018-02-16T07:34:11.316Z,35.20
2018-02-16T07:36:39.702Z,27.95
2018-02-16T07:39:08.093Z,23.33
2018-02-16T07:41:36.456Z,38.15
2018-02-16T07:44:05.002Z,29.20
2018-02-16T07:46:33.366Z,22.73
2018-02-16T07:49:01.728Z,31.77
2018-02-16T07:51:30.882Z,33.15
2018-02-16T07:53:59.249Z,27.87
2018-02-16T07:56:27.637Z,24.67
2018-02-16T07:58:56.022Z,28.05
2018-02-16T08:01:24.433Z,24.17
2018-02-16T08:03:53.561Z,23.80
2018-02-16T08:06:21.927Z,30.55
2018-02-16T08:08:50.310Z,24.73
2018-02-16T08:11:18.673Z,26.15
2018-02-16T08:13:47.061Z,22.98
2018-02-16T08:16:15.432Z,31.85
2018-02-16T08:18:44.858Z,30.98
2018-02-16T08:21:13.261Z,21.77
2018-02-16T08:23:41.636Z,28.92
2018-02-16T08:26:10.034Z,23.25
2018-02-16T08:28:38.408Z,22.65
2018-02-16T08:31:06.793Z,28.55
2018-02-16T08:33:35.161Z,20.08
2018-02-16T08:36:03.565Z,22.67
2018-02-16T08:38:31.938Z,21.60
2018-02-16T08:41:00.306Z,18.52
2018-02-16T08:43:28.697Z,19.20
2018-02-16T08:45:58.322Z,18.75
2018-02-16T08:48:27.485Z,22.05
2018-02-16T08:50:55.847Z,17.48
2018-02-16T08:53:24.259Z,18.33
2018-02-16T08:55:52.626Z,19.95
2018-02-16T08:58:20.994Z,25.65
2018-02-16T09:00:49.388Z,15.57
2018-02-16T09:03:17.746Z,19.25
2018-02-16T09:05:46.149Z,14.10
2018-02-16T09:08:14.515Z,18.90
2018-02-16T09:10:43.134Z,13.00
2018-02-16T09:13:11.503Z,19.35
2018-02-16T09:15:40.641Z,15.90
2018-02-16T09:18:09.088Z,9.45
2018-02-16T09:20:37.468Z,17.42
2018-02-16T09:23:05.861Z,10.82
2018-02-16T09:25:34.221Z,13.23
2018-02-16T09:28:03.436Z,15.23
2018-02-16T09:30:31.799Z,22.73
2018-02-16T09:33:00.941Z,12.45
2018-02-16T09:35:34.477Z,13.00
2018-02-16T09:38:02.839Z,11.85
2018-02-16T09:40:31.233Z,12.85
2018-02-16T09:42:59.620Z,10.77
2018-02-16T09:45:28.773Z,16.37
2018-02-16T09:47:57.136Z,13.65
2018-02-16T09:50:25.501Z,19.52
2018-02-16T09:52:53.880Z,14.60
2018-02-16T09:55:22.233Z,9.95
2018-02-16T09:57:51.389Z,12.75
2018-02-16T10:00:19.753Z,10.02
2018-02-16T10:02:48.144Z,9.75
2018-02-16T10:05:16.562Z,12.95
2018-02-16T10:07:45.693Z,12.27
2018-02-16T10:10:14.074Z,14.82
2018-02-16T10:12:42.454Z,7.70
2018-02-16T10:15:10.843Z,11.60
2018-02-16T10:17:39.201Z,11.40
2018-02-16T10:20:07.989Z,8.15
2018-02-16T10:22:36.385Z,7.68
2018-02-16T10:25:04.772Z,8.52
2018-02-16T10:27:33.152Z,8.38
2018-02-16T10:30:01.549Z,6.80
2018-02-16T10:32:30.096Z,16.05
2018-02-16T10:34:58.462Z,8.15
2018-02-16T10:37:26.870Z,13.88
2018-02-16T10:39:55.258Z,21.08
2018-02-16T10:42:23.621Z,13.18
2018-02-16T10:44:52.005Z,9.27
2018-02-16T10:47:20.375Z,6.78
2018-02-16T10:49:48.799Z,11.48
2018-02-16T10:52:17.137Z,9.52
2018-02-16T10:54:45.829Z,18.25
2018-02-16T10:57:14.194Z,17.17
2018-02-16T10:59:42.573Z,10.25
2018-02-16T11:02:16.516Z,4.10
2018-02-16T11:04:50.382Z,5.80
2018-02-16T11:07:24.240Z,7.22
2018-02-16T11:09:53.372Z,5.90
2018-02-16T11:12:21.746Z,4.28
2018-02-16T11:14:50.100Z,5.70
2018-02-16T11:17:19.259Z,3.95
2018-02-16T11:19:47.623Z,5.50
2018-02-16T11:22:16.013Z,3.55
2018-02-16T11:24:44.368Z,4.75
2018-02-16T11:27:12.721Z,5.93
2018-02-16T11:29:41.875Z,9.23
2018-02-16T11:32:10.236Z,12.23
2018-02-16T11:34:38.643Z,4.32
2018-02-16T11:37:08.514Z,9.25
2018-02-16T11:39:36.921Z,5.85
2018-02-16T11:42:05.281Z,6.20
2018-02-16T11:44:33.650Z,6.40
2018-02-16T11:47:02.051Z,7.32
2018-02-16T11:49:30.408Z,5.90
2018-02-16T11:51:58.817Z,6.20
2018-02-16T11:54:27.334Z,6.05
2018-02-16T11:56:56.621Z,8.35
2018-02-16T11:59:25.006Z,5.68
2018-02-16T12:01:54.128Z,4.87
2018-02-16T12:04:22.586Z,5.35
2018-02-16T12:06:51.712Z,5.22
2018-02-16T12:09:20.104Z,4.78
2018-02-16T12:11:48.467Z,4.72
2018-02-16T12:14:17.267Z,4.90
2018-02-16T12:16:45.637Z,5.53
2018-02-16T12:19:13.995Z,6.05
2018-02-16T12:21:42.383Z,7.15
2018-02-16T12:24:10.738Z,6.00
2018-02-16T12:26:39.889Z,5.45
2018-02-16T12:29:08.246Z,5.87
2018-02-16T12:31:36.824Z,6.00
2018-02-16T12:34:05.176Z,7.45
2018-02-16T12:36:34.418Z,6.20
2018-02-16T12:39:02.804Z,6.68
2018-02-16T12:41:31.161Z,6.20
2018-02-16T12:43:59.556Z,6.37
2018-02-16T12:46:27.910Z,5.78
2018-02-16T12:48:56.496Z,7.57
2018-02-16T12:51:24.860Z,5.72
2018-02-16T12:53:53.216Z,6.03
2018-02-16T12:56:22.372Z,11.23
2018-02-16T12:58:50.755Z,13.48
2018-02-16T13:01:19.186Z,13.25
2018-02-16T13:03:47.555Z,9.88
2018-02-16T13:06:16.892Z,13.57
2018-02-16T13:08:45.288Z,10.23
2018-02-16T13:11:13.628Z,9.95
2018-02-16T13:13:42.013Z,9.32
2018-02-16T13:18:42.896Z,7.70
2018-02-16T13:21:11.260Z,6.70
2018-02-16T13:23:39.936Z,5.82
2018-02-16T13:26:08.293Z,9.70
2018-02-16T13:28:37.415Z,6.30
2018-02-16T13:31:05.788Z,6.55
2018-02-16T13:33:34.145Z,6.22
2018-02-16T13:36:03.285Z,7.72
2018-02-16T13:38:31.640Z,8.48
2018-02-16T13:41:00.069Z,8.43
2018-02-16T13:43:28.701Z,10.20
2018-02-16T13:45:57.289Z,5.85
2018-02-16T13:48:25.676Z,7.87
2018-02-16T13:50:54.038Z,7.00
2018-02-16T13:53:22.416Z,11.80
2018-02-16T13:55:50.780Z,10.55
2018-02-16T13:58:20.200Z,6.90
2018-02-16T14:00:48.580Z,7.35
2018-02-16T14:03:16.968Z,11.77
2018-02-16T14:05:45.367Z,14.87
2018-02-16T14:08:13.910Z,10.10
2018-02-16T14:10:42.316Z,15.40
2018-02-16T14:13:10.708Z,11.20
2018-02-16T14:15:39.272Z,8.88
2018-02-16T14:18:07.657Z,11.25
2018-02-16T14:20:36.044Z,10.13
2018-02-16T14:23:04.506Z,15.23
2018-02-16T14:25:32.870Z,11.80
2018-02-16T14:28:01.436Z,11.18
2018-02-16T14:30:30.570Z,11.02
2018-02-16T14:32:59.364Z,14.55
2018-02-16T14:35:27.758Z,17.52
2018-02-16T14:37:56.128Z,16.42
2018-02-16T14:40:24.528Z,11.93
2018-02-16T14:42:52.892Z,14.40
2018-02-16T14:45:22.579Z,17.27
2018-02-16T14:47:50.950Z,19.20
2018-02-16T14:50:19.433Z,16.65
2018-02-16T14:52:47.928Z,14.50
2018-02-16T14:55:16.323Z,18.55
2018-02-16T14:57:44.717Z,19.65
2018-02-16T15:00:13.085Z,18.62
2018-02-16T15:02:41.474Z,16.37
2018-02-16T15:05:09.847Z,24.90
2018-02-16T15:07:38.346Z,19.48
2018-02-16T15:10:07.469Z,19.62
2018-02-16T15:12:35.833Z,16.85
2018-02-16T15:15:05.061Z,16.27
2018-02-16T15:17:33.524Z,22.87
2018-02-16T15:20:02.035Z,21.70
2018-02-16T15:22:30.446Z,19.65
2018-02-16T15:24:58.931Z,17.40
2018-02-16T15:27:27.295Z,16.37
2018-02-16T15:29:55.658Z,20.45
2018-02-16T15:32:24.050Z,28.77
2018-02-16T15:34:52.434Z,21.05
2018-02-16T15:37:20.826Z,20.20
2018-02-16T15:39:49.368Z,23.95
2018-02-16T15:42:17.934Z,19.25
2018-02-16T15:44:46.326Z,26.73
2018-02-16T15:47:14.966Z,20.48
2018-02-16T15:49:44.142Z,21.70
2018-02-16T15:52:12.638Z,39.88
2018-02-16T15:54:42.270Z,22.92
2018-02-16T15:57:10.682Z,19.20
2018-02-16T15:59:39.467Z,17.87
2018-02-16T16:02:07.890Z,21.33
2018-02-16T16:04:36.276Z,21.90
2018-02-16T16:07:05.437Z,19.52
2018-02-16T16:09:33.802Z,17.83
2018-02-16T16:12:02.195Z,17.70
2018-02-16T16:14:30.562Z,18.58
2018-02-16T16:16:58.993Z,18.52
2018-02-16T16:19:28.121Z,21.15
2018-02-16T16:21:56.692Z,18.95
2018-02-16T16:24:25.161Z,17.50
2018-02-16T16:26:53.723Z,18.00
2018-02-16T16:29:22.899Z,19.60
2018-02-16T16:31:51.276Z,29.20
2018-02-16T16:34:19.826Z,19.77
2018-02-16T16:36:48.189Z,20.67
2018-02-16T16:39:16.570Z,20.12
2018-02-16T16:41:44.971Z,24.10
2018-02-16T16:44:13.335Z,20.35
2018-02-16T16:46:42.317Z,20.60
2018-02-16T16:49:10.813Z,23.77
2018-02-16T16:51:39.399Z,46.40
2018-02-16T16:54:07.764Z,28.25
2018-02-16T16:56:36.137Z,17.75
2018-02-16T16:59:04.538Z,28.45
2018-02-16T17:01:32.905Z,31.12
2018-02-16T17:04:01.326Z,34.13
2018-02-16T17:06:29.743Z,25.25
2018-02-16T17:08:58.132Z,24.37
2018-02-16T17:11:26.522Z,27.42
2018-02-16T17:13:56.833Z,28.62
2018-02-16T17:16:26.277Z,31.55
2018-02-16T17:18:54.759Z,22.52
2018-02-16T17:21:24.534Z,25.00
2018-02-16T17:23:52.912Z,24.30
2018-02-16T17:26:26.526Z,24.58
2018-02-16T17:29:12.438Z,27.37
2018-02-16T17:31:45.281Z,32.55
2018-02-16T17:34:14.597Z,27.48
2018-02-16T17:36:43.041Z,29.08
2018-02-16T17:39:12.358Z,26.75
2018-02-16T17:41:41.304Z,33.00
2018-02-16T17:44:09.699Z,45.67
2018-02-16T17:46:38.144Z,50.45
2018-02-16T17:49:06.829Z,40.00
2018-02-16T17:51:35.229Z,52.17
2018-02-16T17:54:03.650Z,47.53
2018-02-16T17:56:32.089Z,33.47
2018-02-16T17:59:00.462Z,142.30
2018-02-16T18:01:28.870Z,53.95
2018-02-16T18:03:57.998Z,52.95
2018-02-16T18:06:26.409Z,36.40
2018-02-16T18:08:54.774Z,42.62
2018-02-16T18:11:23.165Z,38.10
2018-02-16T18:13:51.561Z,38.55
2018-02-16T18:16:19.921Z,93.37
2018-02-16T18:18:48.346Z,33.80
2018-02-16T18:21:17.477Z,39.88
2018-02-16T18:23:46.373Z,30.67
2018-02-16T18:26:14.778Z,31.62
2018-02-16T18:28:44.662Z,30.75
2018-02-16T18:31:13.969Z,39.47
2018-02-16T18:33:42.369Z,39.50
2018-02-16T18:36:10.901Z,36.13
2018-02-16T18:38:39.279Z,39.22
2018-02-16T18:41:07.706Z,43.55
2018-02-16T18:43:36.105Z,44.67
2018-02-16T18:46:04.550Z,39.58
2018-02-16T18:48:32.946Z,31.37
2018-02-16T18:51:02.147Z,28.67
2018-02-16T18:53:31.971Z,26.70
2018-02-16T18:56:00.402Z,36.13
2018-02-16T18:58:28.959Z,34.40
2018-02-16T19:00:57.578Z,35.72
2018-02-16T19:03:26.188Z,36.83
2018-02-16T19:05:56.908Z,29.27
2018-02-16T19:08:25.583Z,34.38
2018-02-16T19:10:54.140Z,33.70
2018-02-16T19:13:22.750Z,32.35
2018-02-16T19:15:51.858Z,39.05
2018-02-16T19:18:20.257Z,33.15
2018-02-16T19:20:49.007Z,35.30
2018-02-16T19:23:17.466Z,38.72
2018-02-16T19:25:46.881Z,33.38
2018-02-16T19:28:16.171Z,40.28
2018-02-16T19:30:45.087Z,37.40
2018-02-16T19:33:15.457Z,43.05
2018-02-16T19:35:44.399Z,61.30
2018-02-16T19:38:12.994Z,62.20
2018-02-16T19:40:41.768Z,61.47
2018-02-16T19:43:11.991Z,61.67
2018-02-16T19:45:42.310Z,114.75
2018-02-16T19:48:10.694Z,208.70
2018-02-16T19:50:39.702Z,69.22
2018-02-16T19:53:08.515Z,59.53
2018-02-16T19:55:37.056Z,59.58
2018-02-16T19:58:06.664Z,47.65
2018-02-16T20:00:36.530Z,53.58
2018-02-16T20:03:05.922Z,53.92
2018-02-16T20:05:35.146Z,49.80
2018-02-16T20:08:04.930Z,40.45
2018-02-16T20:10:33.573Z,43.50
2018-02-16T20:13:02.802Z,43.20
2018-02-16T20:15:31.417Z,40.40
2018-02-16T20:18:00.418Z,37.63
2018-02-16T20:20:30.262Z,45.25
2018-02-16T20:22:58.830Z,39.53
2018-02-16T20:25:27.242Z,41.45
2018-02-16T20:27:56.066Z,37.00
2018-02-16T20:30:26.547Z,41.28
2018-02-16T20:32:56.708Z,45.08
2018-02-16T20:35:25.970Z,42.25
2018-02-16T20:37:54.948Z,46.37
2018-02-16T20:40:24.781Z,39.25
2018-02-16T20:42:53.310Z,39.17
2018-02-16T20:45:22.032Z,47.28
2018-02-16T20:47:51.332Z,36.65
2018-02-16T20:50:19.782Z,52.90
2018-02-16T20:52:49.670Z,67.22
2018-02-16T20:55:18.102Z,56.15
2018-02-16T20:57:47.302Z,45.78
2018-02-16T21:00:15.751Z,41.08
2018-02-16T21:02:44.264Z,43.78
2018-02-16T21:05:13.954Z,46.67
2018-02-16T21:07:42.853Z,43.25
2018-02-16T21:10:11.763Z,42.00
2018-02-16T21:12:40.519Z,43.10
2018-02-16T21:15:10.251Z,39.70
2018-02-16T21:17:39.900Z,41.15
2018-02-16T21:20:08.809Z,37.65
2018-02-16T21:22:37.209Z,44.05
2018-02-16T21:25:05.609Z,46.88
2018-02-16T21:27:34.011Z,50.38
2018-02-16T21:30:02.478Z,56.15
2018-02-16T21:32:30.977Z,52.58
2018-02-16T21:34:59.407Z,55.30
2018-02-16T21:37:27.872Z,87.32
2018-02-16T21:39:56.614Z,56.53
2018-02-16T21:42:25.178Z,68.28
2018-02-16T21:44:54.888Z,73.55
2018-02-16T21:47:23.278Z,61.30
2018-02-16T21:49:51.669Z,71.12
2018-02-16T21:52:20.046Z,68.15
2018-02-16T21:54:49.221Z,57.75
2018-02-16T21:57:17.590Z,83.82
2018-02-16T21:59:46.004Z,54.85
2018-02-16T22:02:14.386Z,50.58
2018-02-16T22:04:42.761Z,59.15
2018-02-16T22:07:11.158Z,56.53
2018-02-16T22:09:40.302Z,51.45
2018-02-16T22:12:09.034Z,57.90
2018-02-16T22:14:37.953Z,55.17
2018-02-16T22:17:06.328Z,50.72
2018-02-16T22:19:34.813Z,54.78
2018-02-16T22:22:03.293Z,55.50
2018-02-16T22:24:32.214Z,55.85
2018-02-16T22:27:00.699Z,57.67
2018-02-16T22:29:33.122Z,41.67
2018-02-16T22:32:02.267Z,54.60
2018-02-16T22:34:30.647Z,61.20
2018-02-16T22:36:59.170Z,42.83
2018-02-16T22:39:28.315Z,63.75
2018-02-16T22:41:56.761Z,87.95
2018-02-16T22:44:25.944Z,78.85
2018-02-16T22:46:54.678Z,61.60
2018-02-16T22:49:23.054Z,68.22
2018-02-16T22:51:51.957Z,76.47
2018-02-16T22:54:21.040Z,52.80
2018-02-16T22:56:49.873Z,62.38
2018-02-16T22:59:20.983Z,42.72
2018-02-16T23:01:49.366Z,50.75
2018-02-16T23:04:18.213Z,46.50
2018-02-16T23:06:47.390Z,42.90
2018-02-16T23:09:16.592Z,42.75
2018-02-16T23:11:48.902Z,61.10
2018-02-16T23:14:17.297Z,134.20
2018-02-16T23:16:45.682Z,129.55
2018-02-16T23:19:14.069Z,93.57
2018-02-16T23:21:42.845Z,97.20
2018-02-16T23:24:18.774Z,72.82
2018-02-16T23:26:48.457Z,71.18
2018-02-16T23:29:17.704Z,90.10
2018-02-16T23:32:08.227Z,78.47
2018-02-16T23:37:59.740Z,73.12
2018-02-16T23:40:30.676Z,73.10
2018-02-16T23:42:59.018Z,147.18
2018-02-16T23:45:28.142Z,88.90
2018-02-16T23:47:56.691Z,76.80
2018-02-16T23:50:25.069Z,103.00
2018-02-16T23:52:53.438Z,90.43
2018-02-16T23:55:21.838Z,72.80
2018-02-16T23:57:50.218Z,79.62
